createdAt,value
2023-04-18T00:02:18.508Z,10.59
2023-04-18T00:05:21.835Z,10.58
2023-04-18T00:08:24.686Z,10.56
2023-04-18T00:11:27.989Z,10.53
2023-04-18T00:14:30.616Z,10.53
2023-04-18T00:17:33.511Z,10.50
2023-04-18T00:20:38.967Z,10.45
2023-04-18T00:23:41.860Z,10.47
2023-04-18T00:26:44.341Z,10.46
2023-04-18T00:29:47.541Z,10.46
2023-04-18T00:32:51.739Z,10.41
2023-04-18T00:35:54.610Z,10.45
2023-04-18T00:38:57.178Z,10.45
2023-04-18T00:42:01.243Z,10.46
2023-04-18T00:45:04.116Z,10.45
2023-04-18T00:48:07.793Z,10.46
2023-04-18T00:51:11.555Z,10.44
2023-04-18T00:54:14.934Z,10.46
2023-04-18T00:57:17.787Z,10.45
2023-04-18T01:00:22.018Z,10.46
2023-04-18T01:03:26.151Z,10.43
2023-04-18T01:06:29.650Z,10.47
2023-04-18T01:09:32.559Z,10.46
2023-04-18T01:12:37.358Z,10.47
2023-04-18T01:15:44.068Z,10.43
2023-04-18T01:18:47.274Z,10.43
2023-04-18T01:21:50.320Z,10.43
2023-04-18T01:24:53.293Z,10.44
2023-04-18T01:27:58.784Z,10.42
2023-04-18T01:31:02.385Z,10.42
2023-04-18T01:34:05.583Z,10.43
2023-04-18T01:37:08.465Z,10.42
2023-04-18T01:40:11.580Z,10.41
2023-04-18T01:43:14.688Z,10.40
2023-04-18T01:46:17.305Z,10.39
2023-04-18T01:49:20.605Z,10.38
2023-04-18T01:52:24.942Z,10.40
2023-04-18T01:55:27.798Z,10.38
2023-04-18T01:58:30.418Z,10.41
2023-04-18T02:01:33.259Z,10.40
2023-04-18T02:04:36.151Z,10.40
2023-04-18T02:07:39.004Z,10.40
2023-04-18T02:10:42.613Z,10.37
2023-04-18T02:13:45.421Z,10.19
2023-04-18T02:16:48.352Z,10.41
2023-04-18T02:19:51.886Z,10.40
2023-04-18T02:22:54.865Z,10.38
2023-04-18T02:25:57.453Z,10.39
2023-04-18T02:29:00.724Z,10.40
2023-04-18T02:32:05.247Z,10.37
2023-04-18T02:35:08.324Z,10.35
2023-04-18T02:38:10.936Z,10.35
2023-04-18T02:41:17.428Z,10.26
2023-04-18T02:44:20.002Z,10.35
2023-04-18T02:47:23.306Z,10.32
2023-04-18T02:50:27.079Z,10.29
2023-04-18T02:53:30.739Z,10.27
2023-04-18T02:56:33.511Z,10.24
2023-04-18T02:59:38.551Z,10.20
2023-04-18T03:02:42.039Z,10.24
2023-04-18T03:05:45.976Z,10.21
2023-04-18T03:08:48.579Z,10.11
2023-04-18T03:11:51.778Z,10.15
2023-04-18T03:14:55.819Z,10.13
2023-04-18T03:17:59.001Z,10.13
2023-04-18T03:21:02.445Z,10.12
2023-04-18T03:24:12.364Z,10.10
2023-04-18T03:27:15.976Z,10.06
2023-04-18T03:30:19.494Z,10.06
2023-04-18T03:33:24.544Z,10.06
2023-04-18T03:36:29.950Z,10.06
2023-04-18T03:39:32.455Z,10.06
2023-04-18T03:42:36.304Z,10.06
2023-04-18T03:45:38.954Z,10.03
2023-04-18T03:48:41.887Z,10.01
2023-04-18T03:51:47.998Z,9.99
2023-04-18T03:54:51.193Z,10.01
2023-04-18T03:57:55.128Z,10.03
2023-04-18T04:00:58.911Z,10.01
2023-04-18T04:04:03.051Z,10.04
2023-04-18T04:07:05.877Z,10.02
2023-04-18T04:10:09.248Z,10.04
2023-04-18T04:13:12.050Z,10.02
2023-04-18T04:16:15.597Z,10.06
2023-04-18T04:19:19.237Z,10.08
2023-04-18T04:22:23.202Z,10.09
2023-04-18T04:25:29.687Z,10.13
2023-04-18T04:28:33.042Z,10.14
2023-04-18T04:31:36.679Z,10.17
2023-04-18T04:34:41.486Z,10.21
2023-04-18T04:37:45.249Z,10.22
2023-04-18T04:40:49.759Z,10.23
2023-04-18T04:43:53.917Z,10.25
2023-04-18T04:46:57.589Z,10.27
2023-04-18T04:50:00.891Z,10.31
2023-04-18T04:53:04.564Z,10.29
2023-04-18T04:56:07.291Z,10.33
2023-04-18T04:59:10.244Z,10.35
2023-04-18T05:02:13.968Z,10.47
2023-04-18T05:05:16.872Z,10.92
2023-04-18T05:08:19.900Z,11.01
2023-04-18T05:11:23.566Z,11.20
2023-04-18T05:14:27.762Z,11.24
2023-04-18T05:17:31.263Z,11.30
2023-04-18T05:20:34.419Z,11.37
2023-04-18T05:23:37.448Z,11.42
2023-04-18T05:26:40.787Z,11.43
2023-04-18T05:29:44.089Z,11.31
2023-04-18T05:32:46.999Z,11.17
2023-04-18T05:35:50.629Z,11.12
2023-04-18T05:38:53.721Z,11.11
2023-04-18T05:41:56.912Z,11.12
2023-04-18T05:44:59.926Z,11.17
2023-04-18T05:48:03.073Z,11.21
2023-04-18T05:51:05.971Z,11.25
2023-04-18T05:54:09.903Z,11.31
2023-04-18T05:57:12.446Z,11.37
2023-04-18T06:00:17.158Z,11.44
2023-04-18T06:03:20.260Z,11.50
2023-04-18T06:06:23.070Z,11.53
2023-04-18T06:09:26.487Z,11.58
2023-04-18T06:12:29.064Z,11.63
2023-04-18T06:15:31.834Z,11.64
2023-04-18T06:18:34.609Z,11.67
2023-04-18T06:21:37.725Z,11.68
2023-04-18T06:24:40.419Z,11.68
2023-04-18T06:27:43.348Z,11.66
2023-04-18T06:30:45.973Z,11.67
2023-04-18T06:33:48.746Z,11.68
2023-04-18T06:36:51.581Z,11.69
2023-04-18T06:39:54.631Z,11.69
2023-04-18T06:42:57.217Z,11.72
2023-04-18T06:46:00.082Z,11.77
2023-04-18T06:49:06.880Z,11.86
2023-04-18T06:52:09.697Z,11.91
2023-04-18T06:55:13.893Z,11.98
2023-04-18T06:58:16.995Z,12.01
2023-04-18T07:01:19.718Z,12.08
2023-04-18T07:04:22.925Z,12.09
2023-04-18T07:07:26.481Z,12.18
2023-04-18T07:10:29.856Z,12.25
2023-04-18T07:13:32.828Z,12.29
2023-04-18T07:16:35.856Z,12.38
2023-04-18T07:19:38.427Z,12.43
2023-04-18T07:22:41.499Z,12.49
2023-04-18T07:25:44.070Z,12.57
2023-04-18T07:28:47.075Z,12.79
2023-04-18T07:31:50.042Z,13.05
2023-04-18T07:34:52.876Z,13.21
2023-04-18T07:37:55.513Z,13.37
2023-04-18T07:40:59.611Z,13.50
2023-04-18T07:44:02.767Z,13.69
2023-04-18T07:47:11.254Z,13.76
2023-04-18T07:50:13.804Z,13.78
2023-04-18T07:53:16.880Z,13.82
2023-04-18T07:56:19.654Z,13.89
2023-04-18T07:59:22.729Z,13.90
2023-04-18T08:02:25.756Z,13.95
2023-04-18T08:05:28.895Z,14.08
2023-04-18T08:08:31.486Z,13.92
2023-04-18T08:11:34.480Z,14.19
2023-04-18T08:14:37.079Z,14.22
2023-04-18T08:17:42.656Z,14.37
2023-04-18T08:20:45.502Z,14.45
2023-04-18T08:23:48.506Z,14.47
2023-04-18T08:26:51.070Z,14.67
2023-04-18T08:29:54.292Z,15.03
2023-04-18T08:32:57.000Z,15.86
2023-04-18T08:35:59.771Z,16.75
2023-04-18T08:39:02.690Z,17.02
2023-04-18T08:42:06.694Z,17.25
2023-04-18T08:45:09.681Z,16.82
2023-04-18T08:48:16.313Z,17.02
2023-04-18T08:51:18.856Z,17.27
2023-04-18T08:54:22.568Z,17.50
2023-04-18T08:57:27.014Z,17.88
2023-04-18T09:00:30.556Z,17.80
2023-04-18T09:03:43.182Z,17.89
2023-04-18T09:06:53.170Z,18.11
2023-04-18T09:09:57.369Z,18.70
2023-04-18T09:13:03.247Z,18.87
2023-04-18T09:16:06.627Z,19.67
2023-04-18T09:19:11.965Z,19.71
2023-04-18T09:22:16.233Z,19.69
2023-04-18T09:25:44.150Z,19.43
2023-04-18T09:28:53.868Z,19.42
2023-04-18T09:32:01.495Z,19.03
2023-04-18T09:35:05.511Z,18.92
2023-04-18T09:38:08.799Z,18.74
2023-04-18T09:41:12.526Z,18.88
2023-04-18T09:44:17.125Z,18.69
2023-04-18T09:47:20.004Z,19.18
2023-04-18T09:50:22.929Z,19.29
2023-04-18T09:53:25.958Z,19.46
2023-04-18T09:56:31.987Z,19.86
2023-04-18T09:59:42.729Z,20.54
2023-04-18T10:02:53.221Z,20.59
2023-04-18T10:05:57.799Z,20.92
2023-04-18T10:09:03.364Z,20.21
2023-04-18T10:12:06.380Z,20.07
2023-04-18T10:15:10.185Z,19.52
2023-04-18T10:18:18.653Z,19.84
2023-04-18T10:21:21.893Z,20.36
2023-04-18T10:24:54.122Z,20.50
2023-04-18T10:28:00.875Z,19.95
2023-04-18T10:31:04.199Z,19.85
2023-04-18T10:34:07.028Z,20.26
2023-04-18T10:37:09.877Z,19.69
2023-04-18T10:40:12.441Z,19.60
2023-04-18T10:43:15.568Z,19.43
2023-04-18T10:46:30.929Z,19.11
2023-04-18T10:49:38.532Z,18.54
2023-04-18T10:52:41.806Z,18.71
2023-04-18T10:55:48.948Z,19.35
2023-04-18T10:58:52.982Z,19.75
2023-04-18T11:02:17.991Z,19.82
2023-04-18T11:05:22.650Z,20.47
2023-04-18T11:08:25.611Z,20.36
2023-04-18T11:11:28.137Z,21.18
2023-04-18T11:14:43.980Z,20.99
2023-04-18T11:17:46.492Z,20.73
2023-04-18T11:20:50.763Z,20.31
2023-04-18T11:23:55.491Z,21.39
2023-04-18T11:26:58.402Z,21.09
2023-04-18T11:30:00.911Z,20.99
2023-04-18T11:33:11.642Z,22.01
2023-04-18T11:36:14.597Z,21.86
2023-04-18T11:39:18.466Z,21.36
2023-04-18T11:42:21.279Z,20.90
2023-04-18T11:45:24.060Z,20.60
2023-04-18T11:48:36.761Z,21.44
2023-04-18T11:51:39.688Z,21.71
2023-04-18T11:54:44.226Z,20.98
2023-04-18T11:57:57.713Z,20.49
2023-04-18T12:01:02.741Z,19.88
2023-04-18T12:04:07.309Z,19.53
2023-04-18T12:07:10.558Z,20.70
2023-04-18T12:10:19.598Z,20.69
2023-04-18T12:13:29.336Z,21.05
2023-04-18T12:16:33.499Z,20.66
2023-04-18T12:19:36.283Z,20.25
2023-04-18T12:22:40.014Z,19.86
2023-04-18T12:25:42.594Z,19.87
2023-04-18T12:28:46.058Z,19.67
2023-04-18T12:31:48.580Z,20.49
2023-04-18T12:34:51.417Z,21.37
2023-04-18T12:37:55.900Z,21.86
2023-04-18T12:40:58.977Z,22.00
2023-04-18T12:44:01.709Z,21.93
2023-04-18T12:47:04.748Z,21.87
2023-04-18T12:50:11.245Z,22.13
2023-04-18T12:53:14.432Z,22.42
2023-04-18T12:56:16.951Z,21.88
2023-04-18T12:59:19.793Z,21.59
2023-04-18T13:02:23.508Z,21.59
2023-04-18T13:05:29.864Z,21.50
2023-04-18T13:08:34.959Z,21.71
2023-04-18T13:11:37.917Z,21.22
2023-04-18T13:14:42.255Z,21.22
2023-04-18T13:17:45.092Z,20.94
2023-04-18T13:20:47.861Z,21.23
2023-04-18T13:23:50.613Z,21.05
2023-04-18T13:26:53.189Z,21.49
2023-04-18T13:29:57.252Z,21.24
2023-04-18T13:32:59.838Z,20.59
2023-04-18T13:36:02.651Z,20.81
2023-04-18T13:39:05.756Z,21.25
2023-04-18T13:42:09.123Z,20.93
2023-04-18T13:45:11.790Z,20.54
2023-04-18T13:48:16.263Z,20.68
2023-04-18T13:51:19.214Z,20.43
2023-04-18T13:54:22.129Z,20.28
2023-04-18T13:57:24.686Z,20.31
2023-04-18T14:00:27.856Z,19.94
2023-04-18T14:03:30.984Z,19.79
2023-04-18T14:06:34.698Z,19.61
2023-04-18T14:09:37.678Z,19.61
2023-04-18T14:12:40.384Z,19.47
2023-04-18T14:15:43.261Z,19.58
2023-04-18T14:18:46.185Z,19.51
2023-04-18T14:21:49.089Z,19.45
2023-04-18T14:24:53.774Z,19.01
2023-04-18T14:28:09.472Z,18.77
2023-04-18T14:31:15.618Z,18.92
2023-04-18T14:34:18.910Z,18.57
2023-04-18T14:37:22.302Z,18.73
2023-04-18T14:40:25.199Z,18.59
2023-04-18T14:43:27.944Z,18.14
2023-04-18T14:46:30.939Z,18.11
2023-04-18T14:49:33.566Z,18.08
2023-04-18T14:52:36.767Z,17.96
2023-04-18T14:55:39.291Z,18.13
2023-04-18T14:58:43.033Z,17.92
2023-04-18T15:01:45.800Z,17.92
2023-04-18T15:04:49.236Z,17.96
2023-04-18T15:07:52.189Z,18.00
2023-04-18T15:10:55.061Z,18.13
2023-04-18T15:13:57.578Z,18.25
2023-04-18T15:17:00.491Z,18.37
2023-04-18T15:20:06.252Z,18.25
2023-04-18T15:23:11.697Z,18.19
2023-04-18T15:26:14.251Z,18.34
2023-04-18T15:29:17.131Z,18.25
2023-04-18T15:32:20.089Z,18.24
2023-04-18T15:35:23.112Z,18.29
2023-04-18T15:38:25.625Z,18.03
2023-04-18T15:41:28.635Z,17.70
2023-04-18T15:44:31.303Z,17.72
2023-04-18T15:47:34.548Z,17.43
2023-04-18T15:50:37.632Z,17.37
2023-04-18T15:53:40.990Z,17.22
2023-04-18T15:56:44.745Z,17.18
2023-04-18T15:59:48.015Z,17.08
2023-04-18T16:02:51.347Z,16.87
2023-04-18T16:05:54.266Z,16.74
2023-04-18T16:08:57.305Z,16.71
2023-04-18T16:12:01.491Z,16.72
2023-04-18T16:15:10.569Z,16.66
2023-04-18T16:18:13.388Z,16.64
2023-04-18T16:21:16.661Z,16.58
2023-04-18T16:24:20.305Z,16.56
2023-04-18T16:27:22.831Z,16.53
2023-04-18T16:30:25.790Z,16.54
2023-04-18T16:33:28.483Z,16.49
2023-04-18T16:36:34.476Z,16.45
2023-04-18T16:39:38.177Z,16.42
2023-04-18T16:42:41.612Z,16.38
2023-04-18T16:45:44.178Z,16.35
2023-04-18T16:48:47.361Z,16.31
2023-04-18T16:51:51.051Z,16.25
2023-04-18T16:54:54.077Z,16.18
2023-04-18T16:57:56.545Z,16.12
2023-04-18T17:01:01.775Z,16.05
2023-04-18T17:04:05.034Z,15.94
2023-04-18T17:07:08.131Z,15.80
2023-04-18T17:10:11.448Z,15.61
2023-04-18T17:13:14.982Z,15.64
2023-04-18T17:16:18.181Z,15.49
2023-04-18T17:19:21.358Z,15.39
2023-04-18T17:22:23.915Z,15.26
2023-04-18T17:25:26.763Z,15.10
2023-04-18T17:28:30.686Z,15.06
2023-04-18T17:31:34.294Z,14.96
2023-04-18T17:34:36.977Z,14.81
2023-04-18T17:37:40.529Z,14.81
2023-04-18T17:40:43.116Z,14.73
2023-04-18T17:43:46.735Z,14.64
2023-04-18T17:46:50.540Z,14.59
2023-04-18T17:49:53.638Z,14.57
2023-04-18T17:52:56.443Z,14.51
2023-04-18T17:56:00.931Z,14.45
2023-04-18T17:59:03.900Z,14.39
2023-04-18T18:02:07.236Z,14.35
2023-04-18T18:05:13.805Z,14.29
2023-04-18T18:08:17.253Z,14.27
2023-04-18T18:11:21.443Z,14.24
2023-04-18T18:14:24.899Z,14.25
2023-04-18T18:17:29.007Z,14.23
2023-04-18T18:20:32.106Z,14.47
2023-04-18T18:23:36.198Z,14.52
2023-04-18T18:26:39.171Z,14.45
2023-04-18T18:29:42.810Z,14.40
2023-04-18T18:32:45.840Z,14.32
2023-04-18T18:35:49.001Z,14.28
2023-04-18T18:38:53.246Z,14.21
2023-04-18T18:41:58.231Z,14.02
2023-04-18T18:45:04.540Z,13.95
2023-04-18T18:48:07.825Z,13.90
2023-04-18T18:51:11.612Z,13.77
2023-04-18T18:54:15.561Z,13.68
2023-04-18T18:57:18.310Z,13.70
2023-04-18T19:00:21.597Z,13.58
2023-04-18T19:03:25.258Z,13.57
2023-04-18T19:06:29.221Z,13.53
2023-04-18T19:09:31.998Z,13.54
2023-04-18T19:12:35.658Z,13.53
2023-04-18T19:15:38.547Z,13.45
2023-04-18T19:18:46.842Z,13.44
2023-04-18T19:21:50.111Z,13.43
2023-04-18T19:24:53.376Z,13.34
2023-04-18T19:27:56.112Z,13.32
2023-04-18T19:30:59.381Z,13.35
2023-04-18T19:34:02.535Z,13.31
2023-04-18T19:37:05.817Z,13.33
2023-04-18T19:40:09.887Z,13.33
2023-04-18T19:43:13.173Z,13.32
2023-04-18T19:46:16.115Z,13.36
2023-04-18T19:49:19.581Z,13.35
2023-04-18T19:52:22.527Z,13.36
2023-04-18T19:55:25.648Z,13.40
2023-04-18T19:58:44.612Z,13.40
2023-04-18T20:01:48.301Z,13.37
2023-04-18T20:04:51.625Z,13.36
2023-04-18T20:07:54.704Z,13.34
2023-04-18T20:10:58.095Z,13.30
2023-04-18T20:14:01.040Z,13.28
2023-04-18T20:17:04.232Z,12.83
2023-04-18T20:20:09.309Z,13.19
2023-04-18T20:23:14.465Z,13.23
2023-04-18T20:26:17.285Z,13.18
2023-04-18T20:29:20.879Z,13.14
2023-04-18T20:32:24.063Z,13.08
2023-04-18T20:35:29.621Z,13.00
2023-04-18T20:38:32.795Z,12.95
2023-04-18T20:41:36.980Z,12.80
2023-04-18T20:44:40.247Z,12.74
2023-04-18T20:47:43.507Z,12.71
2023-04-18T20:50:51.333Z,12.71
2023-04-18T20:53:55.005Z,12.70
2023-04-18T20:56:57.592Z,12.68
2023-04-18T21:00:00.761Z,12.66
2023-04-18T21:03:03.960Z,12.65
2023-04-18T21:06:06.994Z,12.59
2023-04-18T21:09:09.555Z,12.56
2023-04-18T21:12:17.640Z,12.55
2023-04-18T21:15:20.306Z,12.54
2023-04-18T21:18:23.536Z,12.56
2023-04-18T21:21:27.282Z,12.51
2023-04-18T21:24:30.406Z,12.53
2023-04-18T21:27:33.097Z,12.56
2023-04-18T21:30:36.251Z,12.52
2023-04-18T21:33:38.913Z,12.57
2023-04-18T21:36:41.962Z,12.58
2023-04-18T21:39:44.785Z,12.58
2023-04-18T21:42:51.046Z,12.60
2023-04-18T21:45:53.565Z,12.58
2023-04-18T21:48:56.590Z,12.57
2023-04-18T21:51:59.322Z,12.50
2023-04-18T21:55:02.385Z,12.57
2023-04-18T21:58:04.936Z,12.55
2023-04-18T22:01:08.153Z,12.54
2023-04-18T22:04:12.371Z,12.50
2023-04-18T22:07:15.741Z,12.50
2023-04-18T22:10:18.989Z,12.48
2023-04-18T22:13:25.299Z,12.42
2023-04-18T22:16:29.022Z,12.42
2023-04-18T22:19:32.594Z,12.41
2023-04-18T22:22:35.840Z,12.39
2023-04-18T22:25:38.382Z,12.37
2023-04-18T22:28:41.550Z,12.38
2023-04-18T22:31:44.185Z,12.38
2023-04-18T22:34:47.137Z,12.32
2023-04-18T22:37:49.737Z,12.30
2023-04-18T22:40:54.631Z,12.27
2023-04-18T22:43:57.566Z,12.22
2023-04-18T22:47:00.887Z,12.24
2023-04-18T22:50:03.643Z,12.22
2023-04-18T22:53:06.500Z,12.20
2023-04-18T22:56:09.012Z,12.18
2023-04-18T22:59:11.847Z,12.14
2023-04-18T23:02:14.652Z,12.18
2023-04-18T23:05:17.795Z,12.15
2023-04-18T23:08:22.517Z,12.13
2023-04-18T23:11:26.262Z,12.05
2023-04-18T23:14:29.312Z,12.07
2023-04-18T23:17:32.321Z,12.12
2023-04-18T23:20:35.047Z,12.12
2023-04-18T23:23:38.073Z,12.11
2023-04-18T23:26:41.080Z,12.07
2023-04-18T23:29:47.288Z,12.03
2023-04-18T23:32:49.982Z,12.02
2023-04-18T23:35:52.865Z,12.00
2023-04-18T23:38:55.568Z,12.01
2023-04-18T23:41:58.628Z,11.93
2023-04-18T23:45:01.560Z,11.95
2023-04-18T23:48:05.098Z,11.94
2023-04-18T23:51:07.865Z,11.71
2023-04-18T23:54:10.938Z,11.91
2023-04-18T23:57:13.465Z,11.87
